Time;durP1;ratioP1;P1;durP2;ratioP2;P2;SDS_P1;SDS_P2;PMS_P1;PMS_P2;Temp;Humidity;BMP_temperature;BMP_pressure;BME280_temperature;BME280_humidity;BME280_pressure;Samples;Min_cycle;Max_cycle;Signal;HPM_P1;HPM_P2
2022/03/31 00:02:04;;;;;;;69.28;17.83;;;13.50;60.80;;;;;;5082889;28;20031;-78
2022/03/31 00:04:30;;;;;;;46.15;14.88;;;13.50;60.90;;;;;;5084999;28;20099;-78
2022/03/31 00:06:56;;;;;;;61.75;16.67;;;13.50;60.90;;;;;;5083168;28;20108;-76
2022/03/31 00:09:22;;;;;;;54.53;17.38;;;13.50;61.60;;;;;;5082926;28;20029;-76
2022/03/31 00:11:47;;;;;;;54.63;17.48;;;13.50;61.10;;;;;;5084826;28;20015;-78
2022/03/31 00:14:13;;;;;;;65.22;19.08;;;13.60;61.10;;;;;;5064952;28;20017;-77
2022/03/31 00:16:39;;;;;;;59.70;16.63;;;13.50;61.50;;;;;;5083206;28;20023;-76
2022/03/31 00:19:05;;;;;;;77.47;17.48;;;13.50;61.90;;;;;;5066740;28;20368;-76
2022/03/31 00:21:31;;;;;;;62.55;17.50;;;13.60;61.40;;;;;;5082225;28;20043;-77
2022/03/31 00:23:56;;;;;;;66.63;20.13;;;13.60;61.20;;;;;;5083783;28;20059;-75
2022/03/31 00:26:22;;;;;;;60.30;19.20;;;13.60;61.60;;;;;;5084033;28;20460;-77
2022/03/31 00:28:48;;;;;;;75.07;18.95;;;13.60;60.90;;;;;;5082657;28;20028;-77
2022/03/31 00:31:13;;;;;;;57.97;20.10;;;13.60;61.00;;;;;;5083653;28;20087;-77
2022/03/31 00:33:39;;;;;;;72.13;19.92;;;13.60;60.80;;;;;;5065410;28;20107;-76
2022/03/31 00:36:05;;;;;;;59.67;18.35;;;13.60;61.10;;;;;;5064319;28;20131;-77
2022/03/31 00:38:32;;;;;;;63.47;19.50;;;13.60;61.20;;;;;;5082400;28;20123;-77
2022/03/31 00:40:58;;;;;;;64.20;20.30;;;13.50;61.10;;;;;;5082822;28;20091;-76
2022/03/31 00:43:24;;;;;;;65.50;19.15;;;13.60;62.20;;;;;;5083168;28;20559;-76
2022/03/31 00:45:53;;;;;;;48.78;15.10;;;13.60;62.30;;;;;;5064041;28;20021;-76
2022/03/31 00:48:19;;;;;;;59.58;17.35;;;13.50;61.90;;;;;;5082878;28;20026;-76
2022/03/31 00:50:47;;;;;;;60.38;15.23;;;13.50;62.00;;;;;;5084067;28;20108;-77
2022/03/31 00:53:13;;;;;;;51.95;13.43;;;13.50;62.20;;;;;;5082387;28;20455;-76
2022/03/31 00:55:39;;;;;;;48.08;11.98;;;13.50;62.90;;;;;;5082616;28;20159;-76
2022/03/31 00:58:05;;;;;;;47.60;10.95;;;13.40;63.10;;;;;;5083818;28;20028;-76
2022/03/31 01:00:31;;;;;;;44.75;10.65;;;13.40;63.60;;;;;;5081916;28;20422;-75
2022/03/31 01:02:57;;;;;;;41.22;10.18;;;13.40;63.70;;;;;;5082921;28;20012;-75
2022/03/31 01:05:23;;;;;;;44.88;10.55;;;13.40;64.20;;;;;;5083504;28;20028;-77
2022/03/31 01:07:49;;;;;;;30.77;9.93;;;13.30;64.20;;;;;;5081741;28;20024;-77
2022/03/31 01:10:15;;;;;;;35.78;9.45;;;13.30;64.30;;;;;;5083204;28;20364;-76
2022/03/31 01:12:42;;;;;;;39.58;9.00;;;13.30;64.30;;;;;;5082980;28;20100;-78
2022/03/31 01:15:10;;;;;;;33.40;9.77;;;13.30;64.20;;;;;;5081905;28;20029;-77
2022/03/31 01:17:38;;;;;;;32.47;8.63;;;13.30;64.60;;;;;;5082742;28;20493;-76
2022/03/31 01:20:07;;;;;;;38.65;9.23;;;13.30;65.00;;;;;;5083416;28;20081;-76
2022/03/31 01:22:33;;;;;;;31.08;9.25;;;13.30;65.60;;;;;;5081412;28;20051;-76
2022/03/31 01:25:00;;;;;;;39.35;10.05;;;13.30;66.30;;;;;;5082568;28;20063;-76
2022/03/31 01:27:26;;;;;;;33.38;8.50;;;13.30;66.50;;;;;;5083166;28;20036;-77
2022/03/31 01:29:53;;;;;;;29.52;8.98;;;13.30;66.40;;;;;;5059575;28;20093;-78
2022/03/31 01:32:20;;;;;;;28.48;9.80;;;13.20;66.70;;;;;;5064420;28;20462;-78
2022/03/31 01:34:46;;;;;;;26.90;8.82;;;13.20;67.00;;;;;;5081917;28;20043;-77
2022/03/31 01:37:13;;;;;;;40.92;10.45;;;13.20;67.60;;;;;;5065224;28;20412;-78
2022/03/31 01:39:40;;;;;;;32.72;9.48;;;13.30;67.50;;;;;;5082048;28;20021;-76
2022/03/31 01:42:06;;;;;;;28.40;8.45;;;13.30;67.90;;;;;;5081560;28;20020;-78
2022/03/31 01:44:32;;;;;;;33.92;8.63;;;13.30;67.90;;;;;;5081219;28;20021;-77
2022/03/31 01:46:58;;;;;;;37.65;9.52;;;13.30;68.10;;;;;;5082065;28;20028;-78
2022/03/31 01:49:24;;;;;;;30.80;9.35;;;13.30;69.00;;;;;;5082773;28;20485;-77
2022/03/31 01:51:50;;;;;;;36.55;8.52;;;13.30;70.10;;;;;;5080738;28;20035;-78
2022/03/31 01:54:17;;;;;;;41.15;9.50;;;13.30;70.90;;;;;;5082975;28;20028;-76
2022/03/31 01:56:44;;;;;;;30.83;8.75;;;13.30;72.20;;;;;;5087124;28;20044;-78
2022/03/31 01:59:11;;;;;;;33.20;9.40;;;13.20;73.10;;;;;;5085024;28;20027;-78
2022/03/31 02:01:37;;;;;;;35.90;7.88;;;13.20;74.20;;;;;;5068569;28;20028;-77
2022/03/31 02:04:03;;;;;;;39.30;8.45;;;13.10;77.30;;;;;;5092965;28;20098;-78
2022/03/31 02:06:29;;;;;;;31.17;6.72;;;13.10;84.60;;;;;;5097601;28;20024;-77
2022/03/31 02:08:56;;;;;;;32.83;8.00;;;13.00;91.30;;;;;;5079448;28;20480;-77
2022/03/31 02:11:22;;;;;;;30.50;6.68;;;12.90;96.80;;;;;;5097833;28;20062;-79
2022/03/31 02:13:48;;;;;;;28.20;8.13;;;12.80;99.90;;;;;;5097696;28;20028;-78
2022/03/31 02:16:15;;;;;;;30.20;7.72;;;12.70;99.90;;;;;;5079374;28;20082;-77
2022/03/31 02:18:41;;;;;;;29.17;7.60;;;12.60;99.90;;;;;;5097450;28;20024;-77
2022/03/31 02:21:07;;;;;;;33.95;7.13;;;12.60;99.90;;;;;;5097268;28;20050;-78
2022/03/31 02:23:33;;;;;;;24.38;6.22;;;12.50;99.90;;;;;;5097452;28;20117;-77
2022/03/31 02:25:59;;;;;;;27.77;7.50;;;12.40;99.90;;;;;;5097466;28;20487;-78
2022/03/31 02:28:25;;;;;;;24.77;6.95;;;12.40;99.90;;;;;;5097612;28;20024;-78
2022/03/31 02:30:50;;;;;;;27.92;7.60;;;12.30;99.90;;;;;;5097305;28;20075;-77
2022/03/31 02:33:17;;;;;;;29.08;7.85;;;12.30;99.90;;;;;;5097090;28;20028;-77
2022/03/31 02:35:43;;;;;;;31.75;6.88;;;12.30;99.90;;;;;;5097118;28;20069;-76
2022/03/31 02:38:09;;;;;;;35.42;6.35;;;12.30;99.90;;;;;;5097217;28;20020;-78
2022/03/31 02:40:35;;;;;;;28.83;7.18;;;12.40;99.90;;;;;;5078771;28;20161;-76
2022/03/31 02:43:01;;;;;;;29.42;6.70;;;12.40;99.90;;;;;;5097022;28;20069;-78
2022/03/31 02:45:27;;;;;;;24.92;7.15;;;12.40;99.90;;;;;;5096806;28;20024;-77
2022/03/31 02:47:53;;;;;;;27.67;6.45;;;12.40;99.90;;;;;;5096795;28;20024;-77
2022/03/31 02:50:19;;;;;;;31.88;8.43;;;12.40;99.90;;;;;;5078519;28;20030;-76
2022/03/31 02:55:30;;;;;;;27.23;6.05;;;12.50;99.90;;;;;;5096742;28;20090;-77
2022/03/31 02:58:00;;;;;;;25.98;5.93;;;12.50;99.90;;;;;;5096343;28;20398;-76
2022/03/31 03:00:26;;;;;;;20.10;5.65;;;12.50;99.90;;;;;;5096912;28;20028;-76
2022/03/31 03:02:53;;;;;;;21.63;5.75;;;12.50;99.90;;;;;;5078582;28;20470;-76
2022/03/31 03:05:19;;;;;;;21.38;5.40;;;12.50;99.90;;;;;;5096283;28;20051;-78
2022/03/31 03:07:45;;;;;;;19.55;5.57;;;12.50;99.90;;;;;;5095252;28;20036;-78
2022/03/31 03:10:13;;;;;;;28.00;5.75;;;12.60;99.90;;;;;;5078502;28;20021;-76
2022/03/31 03:12:41;;;;;;;21.58;5.68;;;12.60;99.90;;;;;;5096312;28;20470;-79
2022/03/31 03:15:08;;;;;;;21.35;6.25;;;12.60;99.90;;;;;;5096300;28;20444;-76
2022/03/31 03:17:34;;;;;;;24.30;7.70;;;12.60;99.90;;;;;;5096045;28;20028;-77
2022/03/31 03:20:00;;;;;;;22.60;8.02;;;12.60;99.90;;;;;;5078237;28;20106;-77
2022/03/31 03:22:26;;;;;;;20.05;7.53;;;12.60;99.90;;;;;;5096415;28;20024;-76
2022/03/31 03:24:53;;;;;;;25.75;8.40;;;12.60;99.90;;;;;;5096574;28;20028;-77
2022/03/31 03:27:18;;;;;;;20.63;7.28;;;12.60;99.90;;;;;;5077867;28;20130;-78
2022/03/31 03:29:46;;;;;;;20.92;6.63;;;12.60;99.90;;;;;;5096236;28;20101;-78
2022/03/31 03:32:14;;;;;;;20.90;6.53;;;12.60;99.90;;;;;;5078107;28;20451;-78
2022/03/31 03:34:40;;;;;;;27.20;7.70;;;12.60;99.90;;;;;;5095871;28;20030;-77
2022/03/31 03:37:06;;;;;;;20.63;7.38;;;12.60;99.90;;;;;;5095547;28;20031;-78
2022/03/31 03:39:34;;;;;;;24.23;8.23;;;12.60;99.90;;;;;;5077831;28;20035;-78
2022/03/31 03:42:01;;;;;;;33.10;8.27;;;12.50;99.90;;;;;;5096007;28;20462;-77
2022/03/31 03:44:27;;;;;;;27.20;8.68;;;12.60;99.90;;;;;;5095756;28;20099;-77
2022/03/31 03:46:53;;;;;;;29.88;8.00;;;12.50;99.90;;;;;;5095784;28;20165;-76
2022/03/31 03:49:19;;;;;;;26.67;8.68;;;12.50;99.90;;;;;;5095690;28;20035;-76
2022/03/31 03:51:45;;;;;;;27.20;7.57;;;12.50;99.90;;;;;;5095482;28;20095;-77
2022/03/31 03:54:11;;;;;;;30.50;8.43;;;12.50;99.90;;;;;;5095772;28;20031;-77
2022/03/31 03:56:38;;;;;;;28.70;10.13;;;12.60;99.90;;;;;;5095610;28;20027;-77
2022/03/31 03:59:04;;;;;;;34.15;10.32;;;12.50;99.90;;;;;;5095657;28;20032;-76
2022/03/31 04:01:30;;;;;;;31.13;10.77;;;12.50;99.90;;;;;;5092320;28;20099;-77
2022/03/31 04:03:57;;;;;;;36.53;10.52;;;12.50;99.90;;;;;;5095392;28;20070;-77
2022/03/31 04:06:23;;;;;;;32.67;10.77;;;12.60;99.90;;;;;;5086157;28;20051;-78
2022/03/31 04:08:49;;;;;;;24.00;8.52;;;12.50;99.90;;;;;;5075303;28;20360;-76
2022/03/31 04:11:15;;;;;;;27.88;9.02;;;12.50;99.90;;;;;;5080632;28;20039;-77
2022/03/31 04:13:42;;;;;;;33.95;8.27;;;12.50;99.90;;;;;;5095609;28;20099;-77
2022/03/31 04:16:08;;;;;;;31.02;9.40;;;12.50;99.90;;;;;;5073273;28;20534;-76
2022/03/31 04:18:34;;;;;;;24.20;8.23;;;12.50;99.90;;;;;;5074789;28;20107;-76
2022/03/31 04:21:03;;;;;;;30.45;8.52;;;12.50;99.90;;;;;;5075592;28;20105;-77
2022/03/31 04:23:29;;;;;;;28.02;8.95;;;12.50;99.90;;;;;;5075995;28;20028;-75
2022/03/31 04:25:54;;;;;;;32.78;9.07;;;12.50;99.90;;;;;;5074696;28;20041;-78
2022/03/31 04:28:20;;;;;;;25.30;8.13;;;12.50;99.90;;;;;;5093266;28;20382;-76
2022/03/31 04:30:46;;;;;;;26.10;8.23;;;12.50;99.90;;;;;;5095037;28;20055;-78
2022/03/31 04:33:12;;;;;;;34.95;9.45;;;12.50;99.90;;;;;;5078567;28;20024;-77
2022/03/31 04:35:38;;;;;;;27.45;8.18;;;12.50;99.90;;;;;;5074350;28;20032;-77
2022/03/31 04:38:04;;;;;;;27.50;7.80;;;12.50;99.90;;;;;;5056641;28;20082;-76
2022/03/31 04:40:30;;;;;;;25.33;7.45;;;12.50;99.90;;;;;;5074394;28;20391;-78
2022/03/31 04:42:56;;;;;;;34.70;8.77;;;12.50;99.90;;;;;;5074670;28;20028;-78
2022/03/31 04:45:22;;;;;;;31.90;8.65;;;12.60;99.90;;;;;;5074276;28;20118;-77
2022/03/31 04:47:48;;;;;;;30.33;8.75;;;12.50;99.90;;;;;;5074692;28;20028;-78
2022/03/31 04:50:14;;;;;;;37.67;7.95;;;12.60;99.90;;;;;;5079396;28;20047;-79
2022/03/31 04:52:41;;;;;;;33.88;9.02;;;12.60;99.90;;;;;;5079362;28;20473;-78
2022/03/31 04:55:08;;;;;;;34.63;8.73;;;12.70;99.90;;;;;;5074012;28;20414;-77
2022/03/31 04:57:34;;;;;;;29.23;7.88;;;12.70;99.90;;;;;;5056236;28;20360;-77
2022/03/31 05:00:00;;;;;;;30.15;8.15;;;12.70;99.90;;;;;;5074629;28;20482;-76
2022/03/31 05:02:25;;;;;;;29.08;7.60;;;12.70;99.90;;;;;;5093956;28;20024;-77
2022/03/31 05:04:51;;;;;;;26.95;8.75;;;12.80;99.90;;;;;;5056364;28;20024;-77
2022/03/31 05:07:18;;;;;;;36.20;8.85;;;12.80;99.90;;;;;;5073722;28;20490;-76
2022/03/31 05:09:45;;;;;;;33.20;10.45;;;12.80;99.90;;;;;;5073410;28;20017;-77
2022/03/31 05:12:12;;;;;;;33.67;9.55;;;12.90;99.90;;;;;;5073247;28;20055;-76
2022/03/31 05:14:38;;;;;;;39.30;9.40;;;12.90;99.90;;;;;;5073283;28;20064;-76
2022/03/31 05:17:05;;;;;;;34.90;9.32;;;12.90;99.90;;;;;;5073859;28;20025;-75
2022/03/31 05:19:31;;;;;;;32.83;8.38;;;12.90;99.90;;;;;;5056049;28;20052;-76
2022/03/31 05:21:57;;;;;;;33.28;9.20;;;12.90;99.90;;;;;;5073830;28;20024;-77
2022/03/31 05:24:23;;;;;;;39.53;8.13;;;13.00;99.90;;;;;;5074132;28;20028;-76
2022/03/31 05:26:52;;;;;;;30.08;7.70;;;13.00;99.90;;;;;;5073580;28;20036;-75
2022/03/31 05:29:19;;;;;;;23.20;8.25;;;13.10;99.90;;;;;;5055128;28;20043;-76
2022/03/31 05:31:45;;;;;;;31.17;8.38;;;13.10;99.90;;;;;;5074082;28;20448;-78
2022/03/31 05:34:11;;;;;;;21.50;7.38;;;13.10;99.90;;;;;;5073579;28;20021;-76
2022/03/31 05:36:36;;;;;;;27.02;7.43;;;13.20;99.90;;;;;;5073348;28;20031;-75
2022/03/31 05:39:03;;;;;;;20.77;8.00;;;13.20;99.90;;;;;;5073561;28;20039;-77
2022/03/31 05:41:29;;;;;;;26.95;8.07;;;13.20;99.90;;;;;;5073658;28;20016;-77
2022/03/31 05:43:55;;;;;;;31.08;9.20;;;13.30;99.90;;;;;;5055738;28;20032;-77
2022/03/31 05:46:22;;;;;;;28.17;8.35;;;13.30;99.90;;;;;;5073316;28;20032;-78
2022/03/31 05:48:48;;;;;;;31.05;9.20;;;13.40;99.90;;;;;;5073554;28;20027;-77
2022/03/31 05:51:15;;;;;;;26.40;7.82;;;13.50;99.90;;;;;;5073578;28;20463;-75
2022/03/31 05:53:41;;;;;;;39.22;9.48;;;13.40;99.90;;;;;;5073691;28;20028;-77
2022/03/31 05:56:07;;;;;;;30.38;8.98;;;13.40;99.90;;;;;;5055363;28;20037;-75
2022/03/31 05:58:34;;;;;;;32.83;10.18;;;13.50;99.90;;;;;;5055792;28;20422;-79
2022/03/31 06:01:00;;;;;;;31.38;10.00;;;13.50;99.90;;;;;;5073589;28;20459;-76
2022/03/31 06:03:26;;;;;;;32.97;10.73;;;13.50;99.90;;;;;;5073335;28;20107;-75
2022/03/31 06:05:52;;;;;;;41.50;10.82;;;13.50;99.90;;;;;;5073156;28;20063;-75
2022/03/31 06:08:18;;;;;;;33.15;9.40;;;13.60;99.90;;;;;;5073419;28;20379;-77
2022/03/31 06:10:45;;;;;;;33.22;11.88;;;13.60;99.90;;;;;;5055356;28;20036;-77
2022/03/31 06:13:12;;;;;;;36.03;11.45;;;13.70;99.90;;;;;;5073105;28;20024;-75
2022/03/31 06:15:38;;;;;;;45.92;12.35;;;13.70;99.90;;;;;;5073456;28;20028;-75
2022/03/31 06:18:06;;;;;;;38.08;12.02;;;13.80;99.90;;;;;;5073188;28;20025;-76
2022/03/31 06:20:34;;;;;;;42.70;13.38;;;13.80;99.90;;;;;;5055397;28;20082;-75
2022/03/31 06:23:01;;;;;;;45.38;15.50;;;13.90;99.90;;;;;;5055395;28;20379;-74
2022/03/31 06:25:27;;;;;;;49.50;17.33;;;14.00;99.90;;;;;;5073135;28;20025;-76
2022/03/31 06:27:54;;;;;;;61.58;16.80;;;14.00;99.90;;;;;;5055155;28;20027;-76
2022/03/31 06:30:20;;;;;;;39.45;12.05;;;14.10;99.90;;;;;;5072771;28;20043;-74
2022/03/31 06:32:47;;;;;;;38.08;11.25;;;14.20;99.90;;;;;;5072994;28;20103;-75
2022/03/31 06:35:16;;;;;;;29.77;12.48;;;14.20;99.90;;;;;;5073110;28;20032;-75
2022/03/31 06:37:46;;;;;;;34.13;10.85;;;14.30;99.90;;;;;;5072927;28;20025;-76
2022/03/31 06:40:13;;;;;;;37.42;12.00;;;14.30;99.90;;;;;;5073393;28;20078;-75
2022/03/31 06:42:41;;;;;;;41.00;12.23;;;14.40;99.90;;;;;;5075930;28;20074;-76
2022/03/31 06:45:14;;;;;;;33.40;12.82;;;14.50;99.90;;;;;;5076614;28;20031;-74
2022/03/31 06:47:41;;;;;;;36.72;11.10;;;14.60;99.90;;;;;;5076726;28;20025;-74
2022/03/31 06:50:08;;;;;;;41.15;12.55;;;14.70;99.90;;;;;;5076707;28;20032;-76
2022/03/31 06:52:34;;;;;;;52.78;15.15;;;14.70;99.90;;;;;;5076628;28;20115;-76
2022/03/31 06:55:00;;;;;;;36.20;12.48;;;14.80;99.90;;;;;;5076295;28;20049;-74
2022/03/31 06:57:26;;;;;;;50.08;13.88;;;14.80;99.90;;;;;;5076550;28;20028;-75
2022/03/31 06:59:51;;;;;;;44.63;14.30;;;14.80;99.90;;;;;;5076343;28;20111;-75
2022/03/31 07:02:17;;;;;;;46.42;12.32;;;14.80;99.90;;;;;;5076435;28;20024;-76
2022/03/31 07:04:43;;;;;;;35.85;13.82;;;14.90;99.90;;;;;;5076507;28;20020;-75
2022/03/31 07:07:09;;;;;;;35.65;12.68;;;14.80;99.90;;;;;;5076482;28;20102;-75
2022/03/31 07:09:35;;;;;;;35.78;11.98;;;14.90;99.90;;;;;;5076333;28;20028;-76
2022/03/31 07:12:01;;;;;;;38.22;13.65;;;14.90;99.90;;;;;;5076387;28;20048;-76
2022/03/31 07:14:28;;;;;;;40.97;12.23;;;15.00;99.90;;;;;;5076127;28;20518;-76
2022/03/31 07:16:54;;;;;;;43.65;12.70;;;15.10;99.90;;;;;;5076321;28;20028;-75
2022/03/31 07:19:19;;;;;;;48.65;13.02;;;15.20;99.90;;;;;;5076186;28;20463;-75
2022/03/31 07:21:45;;;;;;;36.65;11.60;;;15.20;99.90;;;;;;5058335;28;20467;-76
2022/03/31 07:24:11;;;;;;;44.97;12.13;;;15.30;99.90;;;;;;5079574;28;20032;-74
2022/03/31 07:26:37;;;;;;;37.35;11.73;;;15.30;99.90;;;;;;5093246;28;20059;-76
2022/03/31 07:29:03;;;;;;;46.22;12.25;;;15.30;99.90;;;;;;5079981;28;20059;-74
2022/03/31 07:31:29;;;;;;;39.67;13.10;;;15.30;99.90;;;;;;5083565;28;20040;-74
2022/03/31 07:33:56;;;;;;;40.80;12.63;;;15.30;99.90;;;;;;5095984;28;20036;-77
2022/03/31 07:36:22;;;;;;;39.53;13.48;;;15.30;99.90;;;;;;5095897;28;20032;-75
2022/03/31 07:38:48;;;;;;;32.35;12.68;;;15.30;99.90;;;;;;5095808;28;20032;-75
2022/03/31 07:41:17;;;;;;;37.72;12.57;;;15.30;99.90;;;;;;5095693;28;20024;-76
2022/03/31 07:43:43;;;;;;;86.95;29.98;;;15.30;99.90;;;;;;5077767;28;20390;-75
2022/03/31 07:46:09;;;;;;;54.53;22.08;;;15.30;99.90;;;;;;5095936;28;20051;-76
2022/03/31 07:48:35;;;;;;;50.03;16.58;;;15.30;99.90;;;;;;5096017;28;20051;-75
2022/03/31 07:51:01;;;;;;;44.13;14.88;;;15.40;99.90;;;;;;5096085;28;20032;-75
2022/03/31 07:53:27;;;;;;;43.28;13.65;;;15.30;99.90;;;;;;5077347;28;20028;-75
2022/03/31 07:55:54;;;;;;;49.95;18.00;;;15.40;99.90;;;;;;5095502;28;20031;-76
2022/03/31 07:58:20;;;;;;;55.65;16.23;;;15.40;99.90;;;;;;5077316;28;20055;-75
2022/03/31 08:00:50;;;;;;;39.40;12.82;;;15.50;99.90;;;;;;5095228;28;20050;-77
2022/03/31 08:03:17;;;;;;;39.15;13.63;;;15.50;99.90;;;;;;5095756;28;20027;-76
2022/03/31 08:05:43;;;;;;;45.15;14.25;;;15.60;99.90;;;;;;5077353;28;20028;-78
2022/03/31 08:08:09;;;;;;;37.00;11.38;;;15.60;99.90;;;;;;5078327;28;20364;-77
2022/03/31 08:10:35;;;;;;;32.25;9.57;;;15.60;99.90;;;;;;5079854;28;20360;-75
2022/03/31 08:13:01;;;;;;;36.63;9.77;;;15.50;99.90;;;;;;5055947;28;20459;-77
2022/03/31 08:15:27;;;;;;;38.83;10.65;;;15.50;99.90;;;;;;5074337;28;20024;-76
2022/03/31 08:17:53;;;;;;;36.58;12.00;;;15.50;99.90;;;;;;5074309;28;20089;-76
2022/03/31 08:20:19;;;;;;;39.90;14.13;;;15.50;99.90;;;;;;5074484;28;20036;-76
2022/03/31 08:22:45;;;;;;;50.38;13.20;;;15.60;99.90;;;;;;5056280;28;20025;-76
2022/03/31 08:25:13;;;;;;;37.05;12.98;;;15.60;99.90;;;;;;5073991;28;20086;-78
2022/03/31 08:27:39;;;;;;;48.33;17.33;;;15.60;99.90;;;;;;5072842;28;20444;-76
2022/03/31 08:30:10;;;;;;;52.80;18.92;;;15.60;99.90;;;;;;5073227;28;20044;-76
2022/03/31 08:32:39;;;;;;;48.60;16.07;;;15.60;99.90;;;;;;5073855;28;20379;-77
2022/03/31 08:35:07;;;;;;;45.05;15.60;;;15.60;99.90;;;;;;5074206;28;20451;-77
2022/03/31 08:37:33;;;;;;;41.40;14.55;;;15.70;99.90;;;;;;5055823;28;20463;-76
2022/03/31 08:39:59;;;;;;;40.88;12.40;;;15.70;99.90;;;;;;5073763;28;20025;-75
2022/03/31 08:42:25;;;;;;;39.78;12.50;;;15.70;99.90;;;;;;5074182;28;20028;-76
2022/03/31 08:44:52;;;;;;;41.05;10.43;;;15.70;99.90;;;;;;5073792;28;20357;-75
2022/03/31 08:47:19;;;;;;;57.47;17.08;;;15.70;99.90;;;;;;5073545;28;20033;-75
2022/03/31 08:49:48;;;;;;;38.55;12.07;;;15.70;99.90;;;;;;5055962;28;20688;-73
2022/03/31 08:52:14;;;;;;;52.03;17.60;;;15.60;99.90;;;;;;5073461;28;20913;-74
2022/03/31 08:54:41;;;;;;;55.53;16.67;;;15.60;99.90;;;;;;5073298;28;20356;-75
2022/03/31 08:57:07;;;;;;;41.40;12.60;;;15.60;99.90;;;;;;5073997;28;20036;-77
2022/03/31 08:59:33;;;;;;;51.63;14.63;;;15.60;99.90;;;;;;5073950;28;20020;-74
2022/03/31 09:01:59;;;;;;;48.22;14.48;;;15.50;99.90;;;;;;5074194;28;20112;-74
2022/03/31 09:04:26;;;;;;;37.30;12.35;;;15.50;99.90;;;;;;5073325;28;20051;-75
2022/03/31 09:07:08;;;;;;;34.35;12.07;;;15.50;99.90;;;;;;5056297;28;20036;-76
2022/03/31 09:09:52;;;;;;;44.88;12.85;;;15.60;99.90;;;;;;5056134;28;20024;-75
2022/03/31 09:12:19;;;;;;;58.13;11.43;;;15.50;99.90;;;;;;5073930;28;20033;-74
2022/03/31 09:14:45;;;;;;;48.47;12.52;;;15.50;99.90;;;;;;5073577;28;20352;-75
2022/03/31 09:17:15;;;;;;;45.17;12.80;;;15.50;99.90;;;;;;5073669;28;20391;-74
2022/03/31 09:19:42;;;;;;;40.05;11.63;;;15.50;99.90;;;;;;5073844;28;20081;-74
2022/03/31 09:22:09;;;;;;;40.65;12.32;;;15.50;99.90;;;;;;5073517;28;20031;-75
2022/03/31 09:24:35;;;;;;;40.80;12.80;;;15.50;99.90;;;;;;5073692;28;20028;-75
2022/03/31 09:27:03;;;;;;;47.95;13.57;;;15.50;99.90;;;;;;5073443;28;20033;-75
2022/03/31 09:29:31;;;;;;;34.90;10.75;;;15.50;99.90;;;;;;5073743;28;20486;-75
2022/03/31 09:32:08;;;;;;;50.83;12.45;;;15.50;99.90;;;;;;5056151;28;20032;-75
2022/03/31 09:34:45;;;;;;;45.65;12.98;;;15.50;99.90;;;;;;5073645;28;20025;-78
2022/03/31 09:37:11;;;;;;;39.63;12.77;;;15.40;99.90;;;;;;5073430;28;20107;-77
2022/03/31 09:39:38;;;;;;;42.28;13.40;;;15.30;99.90;;;;;;5055569;28;20036;-76
2022/03/31 09:42:17;;;;;;;40.17;12.48;;;15.20;99.90;;;;;;5073741;28;20032;-75
2022/03/31 09:44:43;;;;;;;49.83;14.10;;;15.20;99.90;;;;;;5074041;28;20035;-75
2022/03/31 09:47:10;;;;;;;38.33;12.00;;;15.20;99.90;;;;;;5055473;28;20029;-75
2022/03/31 09:49:36;;;;;;;38.78;12.60;;;15.20;99.90;;;;;;5073321;28;20020;-76
2022/03/31 09:52:07;;;;;;;56.38;16.42;;;15.20;99.90;;;;;;5073937;28;20036;-75
2022/03/31 09:54:34;;;;;;;49.28;15.88;;;15.30;99.90;;;;;;5073357;28;20099;-76
2022/03/31 09:57:03;;;;;;;80.97;35.58;;;15.30;99.90;;;;;;5073152;28;20098;-75
2022/03/31 09:59:35;;;;;;;128.30;81.20;;;15.30;99.90;;;;;;5073574;28;20031;-76
2022/03/31 10:02:02;;;;;;;83.25;44.45;;;15.20;99.90;;;;;;5073107;28;20044;-76
2022/03/31 10:04:30;;;;;;;67.25;23.67;;;15.10;99.90;;;;;;5073582;28;20029;-78
2022/03/31 10:06:56;;;;;;;58.85;23.35;;;15.00;99.90;;;;;;5073549;28;20089;-76
2022/03/31 10:09:22;;;;;;;39.80;13.05;;;14.90;99.90;;;;;;5073337;28;20479;-77
2022/03/31 10:12:01;;;;;;;41.90;12.23;;;14.80;99.90;;;;;;5073365;28;20028;-78
2022/03/31 10:14:59;;;;;;;36.03;11.82;;;14.80;99.90;;;;;;5073117;28;20043;-79
2022/03/31 10:17:29;;;;;;;52.80;15.43;;;14.80;99.90;;;;;;5077188;28;20028;-78
2022/03/31 10:20:10;;;;;;;41.80;13.98;;;14.90;99.90;;;;;;5059544;28;20033;-77
2022/03/31 10:25:20;;;;;;;44.90;14.20;;;15.00;99.90;;;;;;5077351;28;20494;-78
2022/03/31 10:27:48;;;;;;;53.05;17.40;;;15.00;99.90;;;;;;5076131;28;20447;-77
2022/03/31 10:30:16;;;;;;;41.13;16.80;;;15.10;99.90;;;;;;5057753;28;20095;-77
2022/03/31 10:32:59;;;;;;;41.42;13.07;;;15.20;99.90;;;;;;5076821;28;20036;-78
2022/03/31 10:35:35;;;;;;;41.05;14.80;;;15.30;99.90;;;;;;5058884;28;20118;-77
2022/03/31 10:38:23;;;;;;;47.13;15.10;;;15.30;99.90;;;;;;5076951;28;20025;-77
2022/03/31 10:41:00;;;;;;;40.50;14.25;;;15.30;99.90;;;;;;5077108;28;20123;-78
2022/03/31 10:43:31;;;;;;;37.35;13.13;;;15.30;99.90;;;;;;5077151;28;20059;-76
2022/03/31 10:46:01;;;;;;;37.38;13.40;;;15.30;99.90;;;;;;5077052;28;20467;-77
2022/03/31 10:48:29;;;;;;;39.65;14.40;;;15.30;99.90;;;;;;5077106;28;20059;-77
2022/03/31 10:51:02;;;;;;;38.58;13.85;;;15.30;99.90;;;;;;5076873;28;20526;-78
2022/03/31 10:53:30;;;;;;;40.60;13.52;;;15.30;99.90;;;;;;5076758;28;20028;-78
2022/03/31 10:55:57;;;;;;;38.20;11.68;;;15.20;99.90;;;;;;5076938;28;20029;-76
2022/03/31 10:58:28;;;;;;;56.10;12.85;;;15.30;99.90;;;;;;5076370;28;20041;-75
2022/03/31 11:01:00;;;;;;;34.85;13.05;;;15.30;99.90;;;;;;5076534;28;20025;-77
2022/03/31 11:03:26;;;;;;;38.45;12.30;;;15.30;99.90;;;;;;5076404;28;20036;-76
2022/03/31 11:05:53;;;;;;;47.13;18.45;;;15.30;99.90;;;;;;5076511;28;20025;-78
2022/03/31 11:08:19;;;;;;;37.55;11.57;;;15.30;99.90;;;;;;5076399;28;20039;-76
2022/03/31 11:10:50;;;;;;;37.75;12.38;;;15.30;99.90;;;;;;5076240;28;20103;-76
2022/03/31 11:13:18;;;;;;;33.83;11.10;;;15.30;99.90;;;;;;5076280;28;20036;-76
2022/03/31 11:15:50;;;;;;;36.13;14.52;;;15.30;99.90;;;;;;5076409;28;20024;-75
2022/03/31 11:18:20;;;;;;;56.20;18.17;;;15.30;99.90;;;;;;5076075;28;20032;-76
2022/03/31 11:20:55;;;;;;;38.00;12.10;;;15.30;99.90;;;;;;5076254;28;20036;-76
2022/03/31 11:23:21;;;;;;;32.65;10.38;;;15.20;99.90;;;;;;5076624;28;20081;-77
2022/03/31 11:25:47;;;;;;;45.83;13.20;;;15.20;99.90;;;;;;5075609;28;20033;-76
2022/03/31 11:28:14;;;;;;;45.85;16.42;;;15.10;99.90;;;;;;5057231;28;20115;-76
2022/03/31 11:30:40;;;;;;;44.45;16.52;;;15.10;99.90;;;;;;5076195;28;20045;-76
2022/03/31 11:33:10;;;;;;;44.85;13.73;;;15.10;99.90;;;;;;5075493;28;20017;-77
2022/03/31 11:35:36;;;;;;;55.03;17.10;;;15.10;99.90;;;;;;5075914;28;20021;-76
2022/03/31 11:38:18;;;;;;;46.72;13.35;;;15.10;99.90;;;;;;5057857;28;20467;-76
2022/03/31 11:40:48;;;;;;;45.22;15.20;;;15.10;99.90;;;;;;5075867;28;20107;-75
2022/03/31 11:43:17;;;;;;;40.67;13.15;;;15.10;99.90;;;;;;5075786;28;20082;-78
2022/03/31 11:45:48;;;;;;;38.03;12.10;;;15.10;99.90;;;;;;5075855;28;20070;-76
2022/03/31 11:48:23;;;;;;;33.97;11.70;;;15.10;99.90;;;;;;5075516;28;20379;-74
2022/03/31 11:50:56;;;;;;;34.60;11.93;;;15.10;99.90;;;;;;5075676;28;20024;-74
2022/03/31 11:53:41;;;;;;;37.13;10.55;;;15.10;99.90;;;;;;5075708;28;20025;-75
2022/03/31 11:56:12;;;;;;;44.17;11.95;;;15.10;99.90;;;;;;5075404;28;20074;-73
2022/03/31 11:58:57;;;;;;;53.70;15.37;;;15.20;99.90;;;;;;5075973;28;20032;-76
2022/03/31 12:01:37;;;;;;;50.28;16.05;;;15.20;99.90;;;;;;5075078;28;20017;-74
2022/03/31 12:04:07;;;;;;;43.88;13.40;;;15.30;99.90;;;;;;5075335;28;20031;-74
2022/03/31 12:06:33;;;;;;;48.42;15.30;;;15.40;99.90;;;;;;5056965;28;20063;-75
2022/03/31 12:08:59;;;;;;;44.60;13.43;;;15.50;99.90;;;;;;5075308;28;20060;-73
2022/03/31 12:11:29;;;;;;;32.75;11.68;;;15.70;99.90;;;;;;5075161;28;20025;-75
2022/03/31 12:13:58;;;;;;;38.22;11.88;;;15.80;99.90;;;;;;5074696;28;20016;-76
2022/03/31 12:16:25;;;;;;;33.45;11.85;;;16.00;99.90;;;;;;5074962;28;20024;-74
2022/03/31 12:19:00;;;;;;;33.53;12.52;;;16.20;99.90;;;;;;5075333;28;20041;-72
2022/03/31 12:21:28;;;;;;;33.55;11.90;;;16.50;99.90;;;;;;5075166;28;20074;-73
2022/03/31 12:24:01;;;;;;;34.67;13.00;;;17.00;99.90;;;;;;5057020;28;20166;-73
2022/03/31 12:26:27;;;;;;;26.40;9.93;;;17.20;99.90;;;;;;5075123;28;20067;-74
2022/03/31 12:28:53;;;;;;;32.25;10.48;;;17.50;99.90;;;;;;5074666;28;20056;-74
2022/03/31 12:31:20;;;;;;;31.98;9.02;;;17.70;99.90;;;;;;5056516;28;20079;-74
2022/03/31 12:33:48;;;;;;;30.17;8.10;;;17.60;99.90;;;;;;5074492;28;20368;-73
2022/03/31 12:36:14;;;;;;;28.73;8.48;;;17.60;99.90;;;;;;5076805;28;20020;-73
2022/03/31 12:38:48;;;;;;;28.60;9.77;;;17.40;99.90;;;;;;5080663;28;20467;-73